createdAt,value
2018-10-09T00:00:13.829Z,2.43
2018-10-09T00:01:17.276Z,1.73
2018-10-09T00:02:20.756Z,1.33
2018-10-09T00:03:24.213Z,1.30
2018-10-09T00:04:27.618Z,2.30
2018-10-09T00:05:31.049Z,1.50
2018-10-09T00:06:34.468Z,1.33
2018-10-09T00:07:37.933Z,1.50
2018-10-09T00:08:41.345Z,1.47
2018-10-09T00:09:44.826Z,1.30
2018-10-09T00:10:48.449Z,1.50
2018-10-09T00:11:51.892Z,1.43
2018-10-09T00:12:55.336Z,1.47
2018-10-09T00:13:58.722Z,1.53
2018-10-09T00:15:02.160Z,1.10
2018-10-09T00:16:05.591Z,1.70
2018-10-09T00:17:09.127Z,1.40
2018-10-09T00:18:12.560Z,1.40
2018-10-09T00:19:15.946Z,1.50
2018-10-09T00:20:24.532Z,1.47
2018-10-09T00:21:27.999Z,1.70
2018-10-09T00:22:31.462Z,1.50
2018-10-09T00:23:35.022Z,1.40
2018-10-09T00:24:38.448Z,1.67
2018-10-09T00:25:41.837Z,1.50
2018-10-09T00:26:45.294Z,1.67
2018-10-09T00:27:48.746Z,1.50
2018-10-09T00:28:52.177Z,1.50
2018-10-09T00:29:55.620Z,1.63
2018-10-09T00:30:59.038Z,1.70
2018-10-09T00:32:02.500Z,1.40
2018-10-09T00:33:05.946Z,1.40
2018-10-09T00:34:09.369Z,1.67
2018-10-09T00:35:12.941Z,1.50
2018-10-09T00:36:16.352Z,1.40
2018-10-09T00:37:19.788Z,1.67
2018-10-09T00:38:23.209Z,1.20
2018-10-09T00:39:26.589Z,1.50
2018-10-09T00:40:30.044Z,1.57
2018-10-09T00:41:33.521Z,1.53
2018-10-09T00:42:36.988Z,1.30
2018-10-09T00:43:40.431Z,1.30
2018-10-09T00:44:43.864Z,1.20
2018-10-09T00:45:47.298Z,1.50
2018-10-09T00:46:50.747Z,1.50
2018-10-09T00:47:54.332Z,1.50
2018-10-09T00:48:57.778Z,1.20
2018-10-09T00:50:01.359Z,1.50
2018-10-09T00:51:04.812Z,1.43
2018-10-09T00:52:08.685Z,1.60
2018-10-09T00:53:12.123Z,1.90
2018-10-09T00:54:15.576Z,1.30
2018-10-09T00:55:19.049Z,1.70
2018-10-09T00:56:22.481Z,1.50
2018-10-09T00:57:25.961Z,1.77
2018-10-09T00:58:29.419Z,1.43
2018-10-09T00:59:32.907Z,1.43
2018-10-09T01:00:36.381Z,1.47
2018-10-09T01:01:39.813Z,1.30
2018-10-09T01:02:43.287Z,1.20
2018-10-09T01:03:46.692Z,1.80
2018-10-09T01:04:50.299Z,1.40
2018-10-09T01:05:53.722Z,1.20
2018-10-09T01:06:57.128Z,1.50
2018-10-09T01:08:00.521Z,1.50
2018-10-09T01:09:04.580Z,1.40
2018-10-09T01:10:08.077Z,1.33
2018-10-09T01:11:11.906Z,1.33
2018-10-09T01:12:15.357Z,1.40
2018-10-09T01:13:18.798Z,1.50
2018-10-09T01:14:22.240Z,1.30
2018-10-09T01:15:25.652Z,1.50
2018-10-09T01:16:29.070Z,1.40
2018-10-09T01:17:32.531Z,1.30
2018-10-09T01:18:35.983Z,1.20
2018-10-09T01:19:39.503Z,1.30
2018-10-09T01:20:42.947Z,1.30
2018-10-09T01:21:46.326Z,1.30
2018-10-09T01:22:49.800Z,1.50
2018-10-09T01:23:53.208Z,1.47
2018-10-09T01:24:56.657Z,1.10
2018-10-09T01:26:00.075Z,1.20
2018-10-09T01:27:03.496Z,1.00
2018-10-09T01:28:07.004Z,1.40
2018-10-09T01:29:10.498Z,1.20
2018-10-09T01:30:13.957Z,1.17
2018-10-09T01:31:17.411Z,1.17
2018-10-09T01:32:20.831Z,1.40
2018-10-09T01:33:24.264Z,1.50
2018-10-09T01:34:27.673Z,1.60
2018-10-09T01:35:31.124Z,1.40
2018-10-09T01:36:34.539Z,1.30
2018-10-09T01:37:37.946Z,1.27
2018-10-09T01:38:41.376Z,1.30
2018-10-09T01:39:44.809Z,1.53
2018-10-09T01:40:48.324Z,1.27
2018-10-09T01:41:51.770Z,1.40
2018-10-09T01:42:55.231Z,1.33
2018-10-09T01:43:58.687Z,1.43
2018-10-09T01:45:02.108Z,1.10
2018-10-09T01:46:05.603Z,1.40
2018-10-09T01:47:09.042Z,1.37
2018-10-09T01:48:12.477Z,1.20
2018-10-09T01:49:15.940Z,1.60
2018-10-09T01:50:19.358Z,1.80
2018-10-09T01:51:22.830Z,1.17
2018-10-09T01:52:26.265Z,1.10
2018-10-09T01:53:29.723Z,1.13
2018-10-09T01:54:33.241Z,0.97
2018-10-09T01:55:36.704Z,0.97
2018-10-09T01:56:40.121Z,1.33
2018-10-09T01:57:43.968Z,1.23
2018-10-09T01:58:47.524Z,1.10
2018-10-09T01:59:51.370Z,1.30
2018-10-09T02:00:54.880Z,1.07
2018-10-09T02:01:58.345Z,1.00
2018-10-09T02:03:01.753Z,1.20
2018-10-09T02:04:05.203Z,1.13
2018-10-09T02:05:08.662Z,1.20
2018-10-09T02:06:12.083Z,1.23
2018-10-09T02:07:15.559Z,2.13
2018-10-09T02:08:19.021Z,1.17
2018-10-09T02:09:23.716Z,1.13
2018-10-09T02:10:27.153Z,1.00
2018-10-09T02:11:30.554Z,1.50
2018-10-09T02:12:34.033Z,1.10
2018-10-09T02:13:37.459Z,1.20
2018-10-09T02:14:40.894Z,1.13
2018-10-09T02:15:44.321Z,1.27
2018-10-09T02:16:47.753Z,1.30
2018-10-09T02:17:51.464Z,1.40
2018-10-09T02:18:54.888Z,1.10
2018-10-09T02:19:58.302Z,1.40
2018-10-09T02:21:01.719Z,1.30
2018-10-09T02:22:05.244Z,1.60
2018-10-09T02:23:08.688Z,1.30
2018-10-09T02:24:12.108Z,1.00
2018-10-09T02:25:15.551Z,1.00
2018-10-09T02:26:19.025Z,1.30
2018-10-09T02:27:22.480Z,1.43
2018-10-09T02:28:25.922Z,1.10
2018-10-09T02:29:29.325Z,1.20
2018-10-09T02:30:32.749Z,1.30
2018-10-09T02:31:36.180Z,1.67
2018-10-09T02:32:39.609Z,1.37
2018-10-09T02:33:43.225Z,1.20
2018-10-09T02:34:46.515Z,1.23
2018-10-09T02:35:49.949Z,1.30
2018-10-09T02:36:53.441Z,1.17
2018-10-09T02:37:56.888Z,1.30
2018-10-09T02:39:00.356Z,1.10
2018-10-09T02:40:03.868Z,1.00
2018-10-09T02:41:07.554Z,1.03
2018-10-09T02:42:10.968Z,1.20
2018-10-09T02:43:14.408Z,1.20
2018-10-09T02:44:17.863Z,1.73
2018-10-09T02:45:21.309Z,1.07
2018-10-09T02:46:24.883Z,1.20
2018-10-09T02:47:28.346Z,1.30
2018-10-09T02:48:31.748Z,1.07
2018-10-09T02:49:35.203Z,1.10
2018-10-09T02:50:38.628Z,1.40
2018-10-09T02:51:42.084Z,1.20
2018-10-09T02:52:45.672Z,1.20
2018-10-09T02:53:49.113Z,1.20
2018-10-09T02:54:52.580Z,1.10
2018-10-09T02:55:56.057Z,1.63
2018-10-09T02:56:59.500Z,1.30
2018-10-09T02:58:02.911Z,1.40
2018-10-09T02:59:06.428Z,1.37
2018-10-09T03:00:10.049Z,1.50
2018-10-09T03:01:13.523Z,1.33
2018-10-09T03:02:16.919Z,1.33
2018-10-09T03:03:21.395Z,1.70
2018-10-09T03:04:24.852Z,1.00
2018-10-09T03:05:28.456Z,1.30
2018-10-09T03:06:31.943Z,1.20
2018-10-09T03:07:35.417Z,1.20
2018-10-09T03:08:39.026Z,1.50
2018-10-09T03:09:42.437Z,1.20
2018-10-09T03:10:45.858Z,1.00
2018-10-09T03:11:49.301Z,1.77
2018-10-09T03:12:52.724Z,1.70
2018-10-09T03:13:56.110Z,1.20
2018-10-09T03:14:59.574Z,1.40
2018-10-09T03:16:02.998Z,1.20
2018-10-09T03:17:06.539Z,1.30
2018-10-09T03:18:10.143Z,1.43
2018-10-09T03:19:13.576Z,1.20
2018-10-09T03:20:17.681Z,1.10
2018-10-09T03:21:21.715Z,1.30
2018-10-09T03:22:25.610Z,1.30
2018-10-09T03:23:29.322Z,1.50
2018-10-09T03:24:33.242Z,0.80
2018-10-09T03:25:37.060Z,1.20
2018-10-09T03:26:41.066Z,1.07
2018-10-09T03:27:44.866Z,1.23
2018-10-09T03:28:48.536Z,1.13
2018-10-09T03:29:52.814Z,1.00
2018-10-09T03:30:56.335Z,1.50
2018-10-09T03:31:59.818Z,1.00
2018-10-09T03:33:03.241Z,1.13
2018-10-09T03:34:07.040Z,1.40
2018-10-09T03:35:11.223Z,1.30
2018-10-09T03:36:14.857Z,1.33
2018-10-09T03:37:18.393Z,1.03
2018-10-09T03:38:21.825Z,1.20
2018-10-09T03:39:25.247Z,1.60
2018-10-09T03:40:28.715Z,1.37
2018-10-09T03:41:32.140Z,1.10
2018-10-09T03:42:35.837Z,1.20
2018-10-09T03:43:39.271Z,1.17
2018-10-09T03:44:42.723Z,1.33
2018-10-09T03:45:46.146Z,1.40
2018-10-09T03:46:49.613Z,0.93
2018-10-09T03:47:53.071Z,1.00
2018-10-09T03:48:56.497Z,1.40
2018-10-09T03:49:59.912Z,1.07
2018-10-09T03:51:03.368Z,1.30
2018-10-09T03:52:07.062Z,1.27
2018-10-09T03:53:10.533Z,1.13
2018-10-09T03:54:13.922Z,1.20
2018-10-09T03:55:17.373Z,1.10
2018-10-09T03:56:20.925Z,1.20
2018-10-09T03:57:24.362Z,1.30
2018-10-09T03:58:27.999Z,1.10
2018-10-09T03:59:31.437Z,0.90
2018-10-09T04:00:35.007Z,1.10
2018-10-09T04:01:38.478Z,1.20
2018-10-09T04:02:41.927Z,1.47
2018-10-09T04:03:45.349Z,1.23
2018-10-09T04:04:48.810Z,1.03
2018-10-09T04:05:52.194Z,1.10
2018-10-09T04:06:55.605Z,1.10
2018-10-09T04:07:59.001Z,1.40
2018-10-09T04:09:02.452Z,1.20
2018-10-09T04:10:06.021Z,1.00
2018-10-09T04:11:09.455Z,1.30
2018-10-09T04:12:12.881Z,1.13
2018-10-09T04:13:16.328Z,1.03
2018-10-09T04:14:19.758Z,1.40
2018-10-09T04:15:23.190Z,1.10
2018-10-09T04:16:26.577Z,1.00
2018-10-09T04:17:29.974Z,1.13
2018-10-09T04:18:33.372Z,1.00
2018-10-09T04:19:36.827Z,1.00
2018-10-09T04:20:40.290Z,1.00
2018-10-09T04:21:43.723Z,1.23
2018-10-09T04:22:47.155Z,1.10
2018-10-09T04:23:50.692Z,1.17
2018-10-09T04:24:54.149Z,1.07
2018-10-09T04:25:57.583Z,1.03
2018-10-09T04:27:01.167Z,0.93
2018-10-09T04:28:04.599Z,1.10
2018-10-09T04:29:08.125Z,1.10
2018-10-09T04:30:11.535Z,1.20
2018-10-09T04:31:15.042Z,1.10
2018-10-09T04:32:18.456Z,1.00
2018-10-09T04:33:21.876Z,1.17
2018-10-09T04:34:25.315Z,1.40
2018-10-09T04:35:28.794Z,1.07
2018-10-09T04:36:32.241Z,1.40
2018-10-09T04:37:35.668Z,1.03
2018-10-09T04:38:39.119Z,1.20
2018-10-09T04:39:42.570Z,1.20
2018-10-09T04:40:45.965Z,1.10
2018-10-09T04:41:49.426Z,2.57
2018-10-09T04:42:53.244Z,2.30
2018-10-09T04:43:56.740Z,1.70
2018-10-09T04:45:00.529Z,1.60
2018-10-09T04:46:04.133Z,2.10
2018-10-09T04:47:07.622Z,1.47
2018-10-09T04:48:11.102Z,1.93
2018-10-09T04:49:14.544Z,2.23
2018-10-09T04:50:18.011Z,1.67
2018-10-09T04:51:21.618Z,2.13
2018-10-09T04:52:25.075Z,2.57
2018-10-09T04:53:28.525Z,2.07
2018-10-09T04:54:31.947Z,2.50
2018-10-09T04:55:35.395Z,2.10
2018-10-09T04:56:38.985Z,2.17
2018-10-09T04:57:42.445Z,2.20
2018-10-09T04:58:45.865Z,2.10
2018-10-09T04:59:49.328Z,2.33
2018-10-09T05:00:53.001Z,2.37
2018-10-09T05:01:56.492Z,3.00
2018-10-09T05:02:59.929Z,2.67
2018-10-09T05:04:03.370Z,2.90
2018-10-09T05:05:06.867Z,2.60
2018-10-09T05:06:10.484Z,2.30
2018-10-09T05:07:13.930Z,2.20
2018-10-09T05:08:17.354Z,2.10
2018-10-09T05:09:20.858Z,2.77
2018-10-09T05:10:24.359Z,2.83
2018-10-09T05:11:27.814Z,3.40
2018-10-09T05:12:31.243Z,3.90
2018-10-09T05:13:34.677Z,3.47
2018-10-09T05:14:38.103Z,3.40
2018-10-09T05:15:41.545Z,4.07
2018-10-09T05:16:45.086Z,3.30
2018-10-09T05:17:48.534Z,4.40
2018-10-09T05:18:51.923Z,3.37
2018-10-09T05:19:55.325Z,3.50
2018-10-09T05:20:58.728Z,4.03
2018-10-09T05:22:02.181Z,3.30
2018-10-09T05:23:05.718Z,4.10
2018-10-09T05:24:09.104Z,4.90
2018-10-09T05:25:12.530Z,3.30
2018-10-09T05:26:16.049Z,3.20
2018-10-09T05:27:19.545Z,3.70
2018-10-09T05:28:23.017Z,3.70
2018-10-09T05:29:26.599Z,3.70
2018-10-09T05:30:30.083Z,3.40
2018-10-09T05:31:33.875Z,3.23
2018-10-09T05:32:37.331Z,3.40
2018-10-09T05:33:40.783Z,3.30
2018-10-09T05:34:44.282Z,3.70
2018-10-09T05:35:47.861Z,3.00
2018-10-09T05:36:51.520Z,2.97
2018-10-09T05:37:54.983Z,3.10
2018-10-09T05:38:58.546Z,3.50
2018-10-09T05:40:02.007Z,3.83
2018-10-09T05:41:06.147Z,4.47
2018-10-09T05:42:09.572Z,4.23
2018-10-09T05:43:13.038Z,5.03
2018-10-09T05:44:16.532Z,4.97
2018-10-09T05:45:20.045Z,5.50
2018-10-09T05:46:23.498Z,5.50
2018-10-09T05:47:26.990Z,8.07
2018-10-09T05:48:30.511Z,5.53
2018-10-09T05:49:33.956Z,5.93
2018-10-09T05:50:37.404Z,5.77
2018-10-09T05:51:40.849Z,6.07
2018-10-09T05:52:44.358Z,6.10
2018-10-09T05:53:47.795Z,5.90
2018-10-09T05:54:51.592Z,5.60
2018-10-09T05:55:55.009Z,5.90
2018-10-09T05:56:58.440Z,6.00
2018-10-09T05:58:02.087Z,6.03
2018-10-09T05:59:05.642Z,5.87
2018-10-09T06:00:09.918Z,5.23
2018-10-09T06:01:13.625Z,5.80
2018-10-09T06:02:17.157Z,5.30
2018-10-09T06:03:20.618Z,5.00
2018-10-09T06:04:24.072Z,5.03
2018-10-09T06:05:27.497Z,5.30
2018-10-09T06:06:30.921Z,5.30
2018-10-09T06:07:34.366Z,5.00
2018-10-09T06:08:38.017Z,5.30
2018-10-09T06:09:41.476Z,5.70
2018-10-09T06:10:44.900Z,5.70
2018-10-09T06:11:48.456Z,5.80
2018-10-09T06:12:52.075Z,5.13
2018-10-09T06:13:55.514Z,5.60
2018-10-09T06:14:58.926Z,5.40
2018-10-09T06:16:02.502Z,5.60
2018-10-09T06:17:05.942Z,5.37
2018-10-09T06:18:09.371Z,5.50
2018-10-09T06:19:12.839Z,5.87
2018-10-09T06:20:16.250Z,5.53
2018-10-09T06:21:20.725Z,5.63
2018-10-09T06:22:24.159Z,5.80
2018-10-09T06:23:27.576Z,5.10
2018-10-09T06:24:31.062Z,5.80
2018-10-09T06:25:34.474Z,4.43
2018-10-09T06:26:38.082Z,5.53
2018-10-09T06:27:41.521Z,6.23
2018-10-09T06:28:44.938Z,5.33
2018-10-09T06:29:48.377Z,5.97
2018-10-09T06:30:51.921Z,5.70
2018-10-09T06:31:55.341Z,6.40
2018-10-09T06:32:58.775Z,5.30
2018-10-09T06:34:02.337Z,5.53
2018-10-09T06:35:05.749Z,5.87
2018-10-09T06:36:09.160Z,6.90
2018-10-09T06:37:12.601Z,7.20
2018-10-09T06:38:16.067Z,6.53
2018-10-09T06:39:19.531Z,7.17
2018-10-09T06:40:22.988Z,6.17
2018-10-09T06:41:26.463Z,6.77
2018-10-09T06:42:29.920Z,6.73
2018-10-09T06:43:33.365Z,6.13
2018-10-09T06:44:36.864Z,7.03
2018-10-09T06:45:40.387Z,6.90
2018-10-09T06:46:43.995Z,8.10
2018-10-09T06:47:47.676Z,8.40
2018-10-09T06:48:51.052Z,8.30
2018-10-09T06:49:54.537Z,8.10
2018-10-09T06:50:58.456Z,9.27
2018-10-09T06:52:02.122Z,9.53
2018-10-09T06:53:05.573Z,9.43
2018-10-09T06:54:09.080Z,9.30
2018-10-09T06:55:12.466Z,8.83
2018-10-09T06:56:15.905Z,8.43
2018-10-09T06:57:19.349Z,8.63
2018-10-09T06:58:23.070Z,8.90
2018-10-09T06:59:26.550Z,9.10
2018-10-09T07:00:29.975Z,8.17
2018-10-09T07:01:33.430Z,8.40
2018-10-09T07:02:37.152Z,8.90
2018-10-09T07:03:40.591Z,8.83
2018-10-09T07:04:44.028Z,8.13
2018-10-09T07:05:47.487Z,9.10
2018-10-09T07:06:51.013Z,9.10
2018-10-09T07:07:54.477Z,8.77
2018-10-09T07:08:58.312Z,9.27
2018-10-09T07:10:01.733Z,8.10
2018-10-09T07:11:05.203Z,8.53
2018-10-09T07:12:08.664Z,8.40
2018-10-09T07:13:12.131Z,8.07
2018-10-09T07:14:15.574Z,8.67
2018-10-09T07:15:19.138Z,8.30
2018-10-09T07:16:22.597Z,9.00
2018-10-09T07:17:26.026Z,7.93
2018-10-09T07:18:29.465Z,8.70
2018-10-09T07:19:32.949Z,7.93
2018-10-09T07:20:36.424Z,8.70
2018-10-09T07:21:39.968Z,9.30
2018-10-09T07:22:43.421Z,9.20
2018-10-09T07:23:46.881Z,10.00
2018-10-09T07:24:50.314Z,9.93
2018-10-09T07:25:53.761Z,10.23
2018-10-09T07:26:57.246Z,8.93
2018-10-09T07:28:00.794Z,9.30
2018-10-09T07:29:04.295Z,8.93
2018-10-09T07:30:08.814Z,8.83
2018-10-09T07:31:12.312Z,8.47
2018-10-09T07:32:15.782Z,8.60
2018-10-09T07:33:19.240Z,8.00
2018-10-09T07:34:22.744Z,9.53
2018-10-09T07:35:26.187Z,9.60
2018-10-09T07:36:29.622Z,7.70
2018-10-09T07:37:33.077Z,8.47
2018-10-09T07:38:36.978Z,7.80
2018-10-09T07:39:40.423Z,8.40
2018-10-09T07:40:43.853Z,8.40
2018-10-09T07:41:47.316Z,8.50
2018-10-09T07:42:50.838Z,8.37
2018-10-09T07:43:54.407Z,7.60
2018-10-09T07:44:57.822Z,7.53
2018-10-09T07:46:01.221Z,7.60
2018-10-09T07:47:04.670Z,7.23
2018-10-09T07:48:08.128Z,7.50
2018-10-09T07:49:11.571Z,7.30
2018-10-09T07:50:15.038Z,6.83
2018-10-09T07:51:18.473Z,6.90
2018-10-09T07:52:22.109Z,6.70
2018-10-09T07:53:25.614Z,6.63
2018-10-09T07:54:29.051Z,7.43
2018-10-09T07:55:32.479Z,6.73
2018-10-09T07:56:35.925Z,7.57
2018-10-09T07:57:39.350Z,7.40
2018-10-09T07:58:42.829Z,5.67
2018-10-09T07:59:46.263Z,6.23
2018-10-09T08:00:49.736Z,6.73
2018-10-09T08:01:53.402Z,5.83
2018-10-09T08:02:56.799Z,6.13
2018-10-09T08:04:00.244Z,5.93
2018-10-09T08:05:04.124Z,6.80
2018-10-09T08:06:07.598Z,6.40
2018-10-09T08:07:11.025Z,5.93
2018-10-09T08:08:14.481Z,6.00
2018-10-09T08:09:17.926Z,6.33
2018-10-09T08:10:21.739Z,6.07
2018-10-09T08:11:25.148Z,6.13
2018-10-09T08:12:28.582Z,5.80
2018-10-09T08:13:32.021Z,5.30
2018-10-09T08:14:35.489Z,5.07
2018-10-09T08:15:38.961Z,6.07
2018-10-09T08:16:42.420Z,5.40
2018-10-09T08:17:45.896Z,5.20
2018-10-09T08:18:49.393Z,5.37
2018-10-09T08:19:52.958Z,5.87
2018-10-09T08:20:56.458Z,5.87
2018-10-09T08:21:59.879Z,5.77
2018-10-09T08:23:03.344Z,4.90
2018-10-09T08:24:07.364Z,4.50
2018-10-09T08:25:10.842Z,5.90
2018-10-09T08:26:14.239Z,5.43
2018-10-09T08:27:17.757Z,5.77
2018-10-09T08:28:21.985Z,5.67
2018-10-09T08:29:25.512Z,4.80
2018-10-09T08:30:28.962Z,5.27
2018-10-09T08:31:32.392Z,4.90
2018-10-09T08:32:35.833Z,4.87
2018-10-09T08:33:39.266Z,5.10
2018-10-09T08:34:42.854Z,4.77
2018-10-09T08:35:46.301Z,4.23
2018-10-09T08:36:50.234Z,4.60
2018-10-09T08:37:53.711Z,5.30
2018-10-09T08:38:57.174Z,5.13
2018-10-09T08:40:00.668Z,4.37
2018-10-09T08:41:04.079Z,5.27
2018-10-09T08:42:07.510Z,4.30
2018-10-09T08:43:10.937Z,5.20
2018-10-09T08:44:14.396Z,4.70
2018-10-09T08:45:17.848Z,4.80
2018-10-09T08:46:21.392Z,4.87
2018-10-09T08:47:24.780Z,5.03
2018-10-09T08:48:28.195Z,4.60
2018-10-09T08:49:31.634Z,5.10
2018-10-09T08:50:35.056Z,4.57
2018-10-09T08:51:38.494Z,4.87
2018-10-09T08:52:41.941Z,4.53
2018-10-09T08:53:45.384Z,5.03
2018-10-09T08:54:48.865Z,5.30
2018-10-09T08:55:52.305Z,4.90
2018-10-09T08:56:55.761Z,4.30
2018-10-09T08:57:59.174Z,4.40
2018-10-09T08:59:02.765Z,4.87
2018-10-09T09:00:07.278Z,4.57
2018-10-09T09:01:10.755Z,4.53
2018-10-09T09:02:14.219Z,4.90
2018-10-09T09:03:17.715Z,5.00
2018-10-09T09:04:21.157Z,4.87
2018-10-09T09:05:24.619Z,5.10
2018-10-09T09:06:28.076Z,5.20
2018-10-09T09:07:31.580Z,4.33
2018-10-09T09:08:35.327Z,4.90
2018-10-09T09:09:38.867Z,4.80
2018-10-09T09:10:42.289Z,4.10
2018-10-09T09:11:45.721Z,4.87
2018-10-09T09:12:49.363Z,4.40
2018-10-09T09:13:52.845Z,5.00
2018-10-09T09:14:56.259Z,4.20
2018-10-09T09:15:59.728Z,4.40
2018-10-09T09:17:03.178Z,4.67
2018-10-09T09:18:06.717Z,4.60
2018-10-09T09:19:10.300Z,5.13
2018-10-09T09:20:13.723Z,4.40
2018-10-09T09:21:17.256Z,4.70
2018-10-09T09:22:20.690Z,4.87
2018-10-09T09:23:24.280Z,4.53
2018-10-09T09:24:27.713Z,4.47
2018-10-09T09:25:31.151Z,5.00
2018-10-09T09:26:34.633Z,4.57
2018-10-09T09:27:38.239Z,4.30
2018-10-09T09:28:41.744Z,4.47
2018-10-09T09:29:45.181Z,4.50
2018-10-09T09:30:48.633Z,4.53
2018-10-09T09:31:52.087Z,4.87
2018-10-09T09:32:55.518Z,5.00
2018-10-09T09:33:59.004Z,4.90
2018-10-09T09:35:02.459Z,4.20
2018-10-09T09:36:05.978Z,4.70
2018-10-09T09:37:09.448Z,4.60
2018-10-09T09:38:12.900Z,4.43
2018-10-09T09:39:16.359Z,5.60
2018-10-09T09:40:19.863Z,4.90
2018-10-09T09:41:23.355Z,4.90
2018-10-09T09:42:26.799Z,4.60
2018-10-09T09:43:30.230Z,4.80
2018-10-09T09:44:33.685Z,4.90
2018-10-09T09:45:37.112Z,5.10
2018-10-09T09:46:40.544Z,4.43
2018-10-09T09:47:44.115Z,4.60
2018-10-09T09:48:47.560Z,5.10
2018-10-09T09:49:51.038Z,5.03
2018-10-09T09:50:54.480Z,4.87
2018-10-09T09:51:57.948Z,4.80
2018-10-09T09:53:01.385Z,5.00
2018-10-09T09:54:04.852Z,4.73
2018-10-09T09:55:08.446Z,5.30
2018-10-09T09:56:11.873Z,4.77
2018-10-09T09:57:15.287Z,5.40
2018-10-09T09:58:18.839Z,4.93
2018-10-09T09:59:22.250Z,4.90
2018-10-09T10:00:30.924Z,5.70
2018-10-09T10:01:39.603Z,5.20
2018-10-09T10:02:43.039Z,4.60
2018-10-09T10:03:46.470Z,4.53
2018-10-09T10:04:50.396Z,5.07
2018-10-09T10:05:53.880Z,4.80
2018-10-09T10:06:57.338Z,5.17
2018-10-09T10:08:01.394Z,4.77
2018-10-09T10:09:06.615Z,4.90
2018-10-09T10:10:10.116Z,5.30
2018-10-09T10:11:13.558Z,5.40
2018-10-09T10:12:16.964Z,4.90
2018-10-09T10:13:20.424Z,4.70
2018-10-09T10:14:23.858Z,5.30
2018-10-09T10:15:27.314Z,4.47
2018-10-09T10:16:30.782Z,4.97
2018-10-09T10:17:34.189Z,5.53
2018-10-09T10:18:37.666Z,4.67
2018-10-09T10:19:41.112Z,4.70
2018-10-09T10:20:44.656Z,4.93
2018-10-09T10:21:48.145Z,4.80
2018-10-09T10:22:51.699Z,5.37
2018-10-09T10:23:55.137Z,4.70
2018-10-09T10:24:58.547Z,4.80
2018-10-09T10:26:02.005Z,4.93
2018-10-09T10:27:05.455Z,5.20
2018-10-09T10:28:08.932Z,5.00
2018-10-09T10:29:12.416Z,4.87
2018-10-09T10:30:15.819Z,4.47
2018-10-09T10:31:19.332Z,5.70
2018-10-09T10:32:22.768Z,4.87
2018-10-09T10:33:26.226Z,5.33
2018-10-09T10:34:29.690Z,4.87
2018-10-09T10:35:33.113Z,4.90
2018-10-09T10:36:36.603Z,4.67
2018-10-09T10:37:40.021Z,4.73
2018-10-09T10:38:43.476Z,4.53
2018-10-09T10:39:46.905Z,4.27
2018-10-09T10:40:50.395Z,4.70
2018-10-09T10:41:53.851Z,4.60
2018-10-09T10:42:57.304Z,4.33
2018-10-09T10:44:00.734Z,4.73
2018-10-09T10:45:04.205Z,3.87
2018-10-09T10:46:08.137Z,5.13
2018-10-09T10:47:11.561Z,4.60
2018-10-09T10:48:14.996Z,4.80
2018-10-09T10:49:18.477Z,5.13
2018-10-09T10:50:21.908Z,4.10
2018-10-09T10:51:25.592Z,4.10
2018-10-09T10:52:29.024Z,4.83
2018-10-09T10:53:32.469Z,4.80
2018-10-09T10:54:35.885Z,4.57
2018-10-09T10:55:39.325Z,4.60
2018-10-09T10:56:42.777Z,3.97
2018-10-09T10:57:46.235Z,3.90
2018-10-09T10:58:50.379Z,4.87
2018-10-09T10:59:54.076Z,3.97
2018-10-09T11:00:57.628Z,4.80
2018-10-09T11:02:01.061Z,4.97
2018-10-09T11:03:04.608Z,4.20
2018-10-09T11:04:08.103Z,4.03
2018-10-09T11:05:11.524Z,4.83
2018-10-09T11:06:15.114Z,4.40
2018-10-09T11:07:18.572Z,3.80
2018-10-09T11:08:22.363Z,4.40
2018-10-09T11:09:25.722Z,4.70
2018-10-09T11:10:29.175Z,3.80
2018-10-09T11:11:32.611Z,4.07
2018-10-09T11:12:36.056Z,4.10
2018-10-09T11:13:39.626Z,4.00
2018-10-09T11:14:43.137Z,4.10
2018-10-09T11:15:46.508Z,4.83
2018-10-09T11:16:50.080Z,4.00
2018-10-09T11:17:53.500Z,3.70
2018-10-09T11:18:56.923Z,3.80
2018-10-09T11:20:00.338Z,4.50
2018-10-09T11:21:03.815Z,3.77
2018-10-09T11:22:07.288Z,4.70
2018-10-09T11:23:10.733Z,4.53
2018-10-09T11:24:14.178Z,4.10
2018-10-09T11:25:17.579Z,3.80
2018-10-09T11:26:21.103Z,3.53
2018-10-09T11:27:24.538Z,4.50
2018-10-09T11:28:27.970Z,4.50
2018-10-09T11:29:31.429Z,4.27
2018-10-09T11:30:34.849Z,4.50
2018-10-09T11:31:38.275Z,3.50
2018-10-09T11:32:41.730Z,3.97
2018-10-09T11:33:45.167Z,4.73
2018-10-09T11:34:48.646Z,4.40
2018-10-09T11:35:52.224Z,3.80
2018-10-09T11:36:55.673Z,4.47
2018-10-09T11:37:59.485Z,3.93
2018-10-09T11:39:02.947Z,3.97
2018-10-09T11:40:06.600Z,3.83
2018-10-09T11:41:10.019Z,4.17
2018-10-09T11:42:13.480Z,4.27
2018-10-09T11:43:16.885Z,4.50
2018-10-09T11:44:20.352Z,3.83
2018-10-09T11:45:23.830Z,4.43
2018-10-09T11:46:27.257Z,4.53
2018-10-09T11:47:30.684Z,3.73
2018-10-09T11:48:34.095Z,4.57
2018-10-09T11:49:37.552Z,3.90
2018-10-09T11:50:40.999Z,4.60
2018-10-09T11:51:44.434Z,4.10
2018-10-09T11:52:47.940Z,4.40
2018-10-09T11:53:51.543Z,3.70
2018-10-09T11:54:55.000Z,4.47
2018-10-09T11:55:58.461Z,4.10
2018-10-09T11:57:01.927Z,3.40
2018-10-09T11:58:05.568Z,3.80
2018-10-09T11:59:09.102Z,3.97
2018-10-09T12:00:12.549Z,4.27
2018-10-09T12:01:16.075Z,4.83
2018-10-09T12:02:19.714Z,5.10
2018-10-09T12:03:23.184Z,6.10
2018-10-09T12:04:26.637Z,5.57
2018-10-09T12:05:30.056Z,6.70
2018-10-09T12:06:33.496Z,5.43
2018-10-09T12:07:36.966Z,5.67
2018-10-09T12:08:40.434Z,6.00
2018-10-09T12:09:43.942Z,5.93
2018-10-09T12:10:47.373Z,5.80
2018-10-09T12:11:51.242Z,6.33
2018-10-09T12:12:54.716Z,6.00
2018-10-09T12:13:58.225Z,5.33
2018-10-09T12:15:01.670Z,5.57
2018-10-09T12:16:05.116Z,6.30
2018-10-09T12:17:08.615Z,5.57
2018-10-09T12:18:12.076Z,5.70
2018-10-09T12:19:15.552Z,5.07
2018-10-09T12:20:19.628Z,5.17
2018-10-09T12:21:23.208Z,6.07
2018-10-09T12:22:26.712Z,4.70
2018-10-09T12:23:30.166Z,5.30
2018-10-09T12:24:33.647Z,5.60
2018-10-09T12:25:37.134Z,5.90
2018-10-09T12:26:40.612Z,5.37
2018-10-09T12:27:44.101Z,4.50
2018-10-09T12:28:47.557Z,5.50
2018-10-09T12:29:51.314Z,5.50
2018-10-09T12:30:54.747Z,5.47
2018-10-09T12:31:58.214Z,5.77
2018-10-09T12:33:01.782Z,4.50
2018-10-09T12:34:05.672Z,4.73
2018-10-09T12:35:09.200Z,5.10
2018-10-09T12:36:12.650Z,5.10
2018-10-09T12:37:16.126Z,5.00
2018-10-09T12:38:19.625Z,4.60
2018-10-09T12:39:23.167Z,4.63
2018-10-09T12:40:26.635Z,4.90
2018-10-09T12:41:30.122Z,4.83
2018-10-09T12:42:33.619Z,4.90
2018-10-09T12:43:37.076Z,4.80
2018-10-09T12:44:40.550Z,4.77
2018-10-09T12:45:44.384Z,4.00
2018-10-09T12:46:47.823Z,4.73
2018-10-09T12:47:51.503Z,4.37
2018-10-09T12:48:54.970Z,4.63
2018-10-09T12:49:58.916Z,4.70
2018-10-09T12:51:02.374Z,4.80
2018-10-09T12:52:05.828Z,4.87
2018-10-09T12:53:09.326Z,4.43
2018-10-09T12:54:12.783Z,4.60
2018-10-09T12:55:16.219Z,5.37
2018-10-09T12:56:19.681Z,4.40
2018-10-09T12:57:23.197Z,4.17
2018-10-09T12:58:26.679Z,5.10
2018-10-09T12:59:30.166Z,4.90
2018-10-09T13:00:33.646Z,4.50
2018-10-09T13:01:37.052Z,4.67
2018-10-09T13:02:40.471Z,5.00
2018-10-09T13:03:43.969Z,4.60
2018-10-09T13:04:47.399Z,4.60
2018-10-09T13:05:50.878Z,4.87
2018-10-09T13:06:54.318Z,4.40
2018-10-09T13:07:57.772Z,5.17
2018-10-09T13:09:01.200Z,4.77
2018-10-09T13:10:04.771Z,5.20
2018-10-09T13:11:08.289Z,4.90
2018-10-09T13:12:11.693Z,5.30
2018-10-09T13:13:15.153Z,4.67
2018-10-09T13:14:18.729Z,4.40
2018-10-09T13:15:22.179Z,4.53
2018-10-09T13:16:25.626Z,4.30
2018-10-09T13:17:29.093Z,4.37
2018-10-09T13:18:32.521Z,4.87
2018-10-09T13:19:35.995Z,4.70
2018-10-09T13:20:39.408Z,4.90
2018-10-09T13:21:43.099Z,4.70
2018-10-09T13:22:46.460Z,4.27
2018-10-09T13:23:49.977Z,5.40
2018-10-09T13:24:53.916Z,4.60
2018-10-09T13:25:57.586Z,4.87
2018-10-09T13:27:01.129Z,4.60
2018-10-09T13:28:04.592Z,4.77
2018-10-09T13:29:08.060Z,4.53
2018-10-09T13:30:11.643Z,4.70
2018-10-09T13:31:15.121Z,4.40
2018-10-09T13:32:18.531Z,4.50
2018-10-09T13:33:21.988Z,4.57
2018-10-09T13:34:25.474Z,4.73
2018-10-09T13:35:28.947Z,4.20
2018-10-09T13:36:32.455Z,4.40
2018-10-09T13:37:35.911Z,4.60
2018-10-09T13:38:39.421Z,4.40
2018-10-09T13:39:42.849Z,4.07
2018-10-09T13:40:46.290Z,4.40
2018-10-09T13:41:49.743Z,4.73
2018-10-09T13:42:53.217Z,4.50
2018-10-09T13:43:56.730Z,4.63
2018-10-09T13:45:00.162Z,4.73
2018-10-09T13:46:03.597Z,4.27
2018-10-09T13:47:07.243Z,4.87
2018-10-09T13:48:11.069Z,4.30
2018-10-09T13:49:14.501Z,4.50
2018-10-09T13:50:18.008Z,5.17
2018-10-09T13:51:21.522Z,4.40
2018-10-09T13:52:24.962Z,4.53
2018-10-09T13:53:28.377Z,4.77
2018-10-09T13:54:31.795Z,4.73
2018-10-09T13:55:35.247Z,4.40
2018-10-09T13:56:38.720Z,4.30
2018-10-09T13:57:42.170Z,4.60
2018-10-09T13:58:45.583Z,4.83
2018-10-09T13:59:49.060Z,5.07
2018-10-09T14:00:52.539Z,5.60
2018-10-09T14:01:56.014Z,6.87
2018-10-09T14:02:59.465Z,6.13
2018-10-09T14:04:02.920Z,6.10
2018-10-09T14:05:06.446Z,6.93